Cobb County-Mc Collum Field Atlanta US
ICAO: KRYY
IATA: RYY
Category: Medium
Scheduled Services: No

Elevation: 1040 ft
TransAlt. 18000 ft.

Airport Communications:
ATLANTA APP/DEP:121
AWOS 3:128.125
CTAF:125.9
GND:119
MC COLLUM TWR:125.9
UNICOM:122.7

KRYY Zoom In..

Runways:

(A) RW 09 length 6311 ft width 100 ft
---- / hdg 93

(B) RW 27 length 6311 ft width 100 ft
ILS 111.90 / hdg 273

Location; KRYY
Day. 21 / Time. 05.48 Zulu
* Altimeter: 29.98
* Temperature: 25° c. 77°f.
* Wind from: 000° Speed 00 kn.
Dewpoint: 21° c.
Visibility: 10 Statute Miles.
Clouds: Few 4600 ft.
Clouds: Broken 11000 ft.

KRYY 210548Z AUTO 00000KT 10SM FEW046 BKN110 25/21 A2998 RMK AO2 SLP871 T02500206 10289 20244 55009


Wind - Calm.

 
 
jpsmedia.com for Web Design worldairports.se 2018   terms of use